Terminal Aerodrome Forecast
Issued by NWS Upton, NY

Home | Current Version | Previous Version | Text Only | Print | Product List | Glossary On
Versions: 1 2 3 4 5 6 7 8 9 10 11 12 13 14 15 16 17 18 19 20 21 22 23 24 25 26 27 28 29 30 31 32
000
FTUS41 KOKX 282141 AAB
TAFBDR
TAF AMD
KBDR 282141Z 2822/2918 05014G19KT P6SM OVC020
     FM282300 06016G24KT P6SM -DZ OVC015
     FM290900 06018G27KT P6SM -DZ SCT006 OVC012
      TEMPO 2909/2913 BKN006=

USA.gov is the U.S. government's official web portal to all federal, state and local government web resources and services.